Time;durP1;ratioP1;P1;durP2;ratioP2;P2;SDS_P1;SDS_P2;PMS_P1;PMS_P2;Temp;Humidity;BMP_temperature;BMP_pressure;BME280_temperature;BME280_humidity;BME280_pressure;Samples;Min_cycle;Max_cycle;Signal;HPM_P1;HPM_P2
2022/09/01 00:01:51;;;;;;;9.25;4.50;;;13.80;99.90;;;;;;4991035;28;20097;-55
2022/09/01 00:04:20;;;;;;;10.43;5.43;;;13.80;99.90;;;;;;4990850;28;20027;-54
2022/09/01 00:06:47;;;;;;;7.13;4.03;;;13.80;99.90;;;;;;4990771;28;20720;-54
2022/09/01 00:09:16;;;;;;;12.45;4.75;;;13.80;99.90;;;;;;4991070;28;20034;-55
2022/09/01 00:11:46;;;;;;;11.68;4.60;;;13.80;99.90;;;;;;4990826;28;20073;-54
2022/09/01 00:14:13;;;;;;;12.82;5.75;;;13.80;99.90;;;;;;4990619;28;20547;-54
2022/09/01 00:16:39;;;;;;;9.75;4.20;;;13.80;99.90;;;;;;4991006;28;20049;-54
2022/09/01 00:19:05;;;;;;;9.57;4.32;;;13.80;99.90;;;;;;4990738;28;20395;-54
2022/09/01 00:21:37;;;;;;;12.05;4.78;;;13.80;99.90;;;;;;4990737;28;20029;-55
2022/09/01 00:24:04;;;;;;;11.07;4.30;;;13.70;99.90;;;;;;4990508;28;20044;-55
2022/09/01 00:26:30;;;;;;;11.53;4.93;;;13.60;99.90;;;;;;4990799;28;20072;-54
2022/09/01 00:28:55;;;;;;;9.20;4.32;;;13.60;99.90;;;;;;4990435;28;20106;-54
2022/09/01 00:31:22;;;;;;;9.48;4.35;;;13.60;99.90;;;;;;4990966;28;20045;-54
2022/09/01 00:33:49;;;;;;;11.55;4.40;;;13.50;99.90;;;;;;4990658;28;20030;-54
2022/09/01 00:36:16;;;;;;;7.18;3.90;;;13.50;99.90;;;;;;4991054;28;20042;-54
2022/09/01 00:38:42;;;;;;;10.48;4.60;;;13.50;99.90;;;;;;4990655;28;20613;-53
2022/09/01 00:41:08;;;;;;;7.78;4.07;;;13.50;99.90;;;;;;4990511;28;20231;-54
2022/09/01 00:43:44;;;;;;;9.82;4.22;;;13.50;99.90;;;;;;4990406;28;20069;-54
2022/09/01 00:46:15;;;;;;;10.63;4.40;;;13.40;99.90;;;;;;4990492;28;20105;-54
2022/09/01 00:48:40;;;;;;;10.30;4.43;;;13.40;99.90;;;;;;4990267;28;20053;-54
2022/09/01 00:51:08;;;;;;;9.70;4.15;;;13.40;99.90;;;;;;4990528;28;20088;-54
2022/09/01 00:53:36;;;;;;;8.65;4.28;;;13.30;99.90;;;;;;4990435;28;20026;-54
2022/09/01 00:56:03;;;;;;;7.88;4.00;;;13.30;99.90;;;;;;4994694;28;20050;-54
2022/09/01 00:58:30;;;;;;;10.60;4.28;;;13.30;99.90;;;;;;4997002;28;20069;-54
2022/09/01 01:00:56;;;;;;;9.38;3.60;;;13.20;99.90;;;;;;4996861;28;20035;-54
2022/09/01 01:03:23;;;;;;;10.23;4.40;;;13.20;99.90;;;;;;4997129;28;20038;-54
2022/09/01 01:05:54;;;;;;;8.85;3.78;;;13.20;99.90;;;;;;4996918;28;20505;-54
2022/09/01 01:08:32;;;;;;;9.07;3.83;;;13.20;99.90;;;;;;4996911;28;20034;-54
2022/09/01 01:11:06;;;;;;;6.80;3.83;;;13.20;99.90;;;;;;4996876;28;20104;-54
2022/09/01 01:13:47;;;;;;;7.28;3.38;;;13.10;99.90;;;;;;4996882;28;20030;-54
2022/09/01 01:16:14;;;;;;;9.25;4.32;;;13.10;99.90;;;;;;4997011;28;20378;-54
2022/09/01 01:18:41;;;;;;;8.05;4.18;;;13.10;99.90;;;;;;4996756;28;20021;-54
2022/09/01 01:24:09;;;;;;;7.85;3.95;;;13.00;99.90;;;;;;4996848;28;20100;-54
2022/09/01 01:26:36;;;;;;;7.68;3.72;;;13.00;99.90;;;;;;4996606;28;20443;-54
2022/09/01 01:29:02;;;;;;;7.13;3.87;;;13.00;99.90;;;;;;4996504;28;20542;-54
2022/09/01 01:31:29;;;;;;;7.32;4.18;;;13.00;99.90;;;;;;4996422;28;20433;-54
2022/09/01 01:33:55;;;;;;;8.77;3.90;;;13.00;99.90;;;;;;4996707;28;20050;-54
2022/09/01 01:36:35;;;;;;;10.65;4.55;;;12.90;99.90;;;;;;4996586;28;20518;-54
2022/09/01 01:39:24;;;;;;;7.72;4.10;;;12.90;99.90;;;;;;4996653;28;20038;-54
2022/09/01 01:41:51;;;;;;;11.48;4.25;;;12.90;99.90;;;;;;4996441;28;20496;-54
2022/09/01 01:44:20;;;;;;;;;;;12.90;99.90;;;;;;4996811;28;20038;-54
2022/09/01 01:46:51;;;;;;;8.07;3.65;;;12.90;99.90;;;;;;4996753;28;19914;-53
2022/09/01 01:49:21;;;;;;;6.03;3.92;;;12.90;99.90;;;;;;4996344;28;20537;-54
2022/09/01 01:51:54;;;;;;;8.90;4.28;;;12.90;99.90;;;;;;4996201;28;20490;-54
2022/09/01 01:54:21;;;;;;;10.30;4.00;;;12.90;99.90;;;;;;4995923;28;20089;-54
2022/09/01 01:56:47;;;;;;;9.77;4.18;;;12.90;99.90;;;;;;4996244;28;20031;-54
2022/09/01 01:59:15;;;;;;;7.55;3.88;;;12.90;99.90;;;;;;4996377;28;20040;-53
2022/09/01 02:01:42;;;;;;;8.20;4.43;;;12.80;99.90;;;;;;4995950;28;20105;-53
2022/09/01 02:04:10;;;;;;;10.82;4.35;;;12.80;99.90;;;;;;4996284;28;20030;-54
2022/09/01 02:06:39;;;;;;;12.43;4.05;;;12.70;99.90;;;;;;4994145;28;20394;-54
2022/09/01 02:09:05;;;;;;;10.10;3.47;;;12.80;99.90;;;;;;4992997;28;20030;-54
2022/09/01 02:11:36;;;;;;;9.63;3.78;;;12.80;99.90;;;;;;4993258;28;20113;-54
2022/09/01 02:14:05;;;;;;;9.68;3.95;;;12.70;99.90;;;;;;4992973;28;20081;-54
2022/09/01 02:16:34;;;;;;;12.10;4.65;;;12.70;99.90;;;;;;4993172;28;20034;-54
2022/09/01 02:19:01;;;;;;;8.93;4.13;;;12.70;99.90;;;;;;4992919;28;20382;-54
2022/09/01 02:21:28;;;;;;;8.07;4.38;;;12.60;99.90;;;;;;4992970;28;20030;-54
2022/09/01 02:24:04;;;;;;;9.63;4.17;;;12.70;99.90;;;;;;4993208;28;20108;-54
2022/09/01 02:26:44;;;;;;;9.75;5.00;;;12.70;99.90;;;;;;4993122;28;20034;-54
2022/09/01 02:29:17;;;;;;;9.70;4.55;;;12.60;99.90;;;;;;4992843;28;20168;-54
2022/09/01 02:31:45;;;;;;;6.82;4.22;;;12.70;99.90;;;;;;4992768;28;20409;-54
2022/09/01 02:34:12;;;;;;;10.27;4.03;;;12.70;99.90;;;;;;4975417;28;20057;-54
2022/09/01 02:36:49;;;;;;;11.52;5.05;;;12.70;99.90;;;;;;4992778;28;20782;-54
2022/09/01 02:39:22;;;;;;;11.95;4.65;;;12.70;99.90;;;;;;4992745;28;20046;-53
2022/09/01 02:41:48;;;;;;;10.80;4.55;;;12.60;99.90;;;;;;4992746;28;20101;-54
2022/09/01 02:44:14;;;;;;;9.13;5.28;;;12.80;99.90;;;;;;4992543;28;20033;-54
2022/09/01 02:46:42;;;;;;;10.25;4.80;;;12.70;99.90;;;;;;4992808;28;20527;-54
2022/09/01 02:49:14;;;;;;;11.88;5.85;;;12.80;99.90;;;;;;4992034;28;20050;-54
2022/09/01 02:51:42;;;;;;;15.38;5.15;;;12.70;99.90;;;;;;4992627;28;20049;-54
2022/09/01 02:54:09;;;;;;;14.10;6.43;;;12.70;99.90;;;;;;4992438;28;20018;-54
2022/09/01 02:56:35;;;;;;;13.43;3.67;;;12.80;99.90;;;;;;4992628;28;20041;-54
2022/09/01 02:59:01;;;;;;;11.02;4.15;;;12.80;99.90;;;;;;4992459;28;20665;-54
2022/09/01 03:01:30;;;;;;;7.87;4.07;;;12.70;99.90;;;;;;4992043;28;20714;-54
2022/09/01 03:04:01;;;;;;;10.38;4.57;;;12.70;99.90;;;;;;4992098;28;20258;-53
2022/09/01 03:06:31;;;;;;;8.55;4.28;;;12.70;99.90;;;;;;4992135;28;20041;-53
2022/09/01 03:08:59;;;;;;;7.50;3.75;;;12.80;99.90;;;;;;4990253;28;20026;-53
2022/09/01 03:11:28;;;;;;;7.88;3.78;;;12.80;99.90;;;;;;4991254;28;20034;-53
2022/09/01 03:13:53;;;;;;;8.07;3.53;;;12.80;99.90;;;;;;4992366;28;20374;-53
2022/09/01 03:16:21;;;;;;;7.55;3.88;;;12.80;99.90;;;;;;4992011;28;20030;-53
2022/09/01 03:18:46;;;;;;;;;;;12.70;99.90;;;;;;4991893;28;20019;-55
2022/09/01 03:21:16;;;;;;;11.32;3.50;;;12.70;99.90;;;;;;4991860;28;19929;-54
2022/09/01 03:23:44;;;;;;;6.47;3.20;;;12.70;99.90;;;;;;4992022;28;20043;-55
2022/09/01 03:26:10;;;;;;;10.02;4.18;;;12.70;99.90;;;;;;4991681;28;20501;-55
2022/09/01 03:28:38;;;;;;;8.85;3.95;;;12.70;99.90;;;;;;4991654;28;20034;-54
2022/09/01 03:31:04;;;;;;;6.68;3.67;;;12.80;99.90;;;;;;4991687;28;20110;-54
2022/09/01 03:33:31;;;;;;;9.05;3.92;;;12.70;99.90;;;;;;4991569;28;20144;-54
2022/09/01 03:35:57;;;;;;;10.13;4.32;;;12.70;99.90;;;;;;4991743;28;20029;-55
2022/09/01 03:38:24;;;;;;;12.45;3.70;;;12.70;99.90;;;;;;4991636;28;20038;-54
2022/09/01 03:41:01;;;;;;;9.67;4.70;;;12.70;99.90;;;;;;4991500;28;20027;-55
2022/09/01 03:43:30;;;;;;;8.00;3.90;;;12.70;99.90;;;;;;4991470;28;20274;-55
2022/09/01 03:45:59;;;;;;;8.02;3.63;;;12.70;99.90;;;;;;4991337;28;20023;-54
2022/09/01 03:48:27;;;;;;;7.57;3.63;;;12.70;99.90;;;;;;4991104;28;20108;-53
2022/09/01 03:50:55;;;;;;;10.00;3.80;;;12.70;99.90;;;;;;4991123;28;20130;-54
2022/09/01 03:53:23;;;;;;;;;;;12.70;99.90;;;;;;4991710;28;20113;-54
2022/09/01 03:55:49;;;;;;;8.03;3.47;;;12.70;99.90;;;;;;4991185;28;19917;-53
2022/09/01 03:58:20;;;;;;;8.98;3.63;;;12.70;99.90;;;;;;4991312;28;20031;-53
2022/09/01 04:00:54;;;;;;;6.45;3.35;;;12.70;99.90;;;;;;4991139;28;20070;-53
2022/09/01 04:03:24;;;;;;;6.90;3.88;;;12.70;99.90;;;;;;4990912;28;20022;-53
2022/09/01 04:05:52;;;;;;;8.40;3.40;;;12.60;99.90;;;;;;4991255;28;20389;-53
2022/09/01 04:08:20;;;;;;;13.07;3.67;;;12.70;99.90;;;;;;4990604;28;20048;-53
2022/09/01 04:10:49;;;;;;;8.65;3.28;;;12.70;99.90;;;;;;4969136;28;20041;-54
2022/09/01 04:13:21;;;;;;;5.72;3.00;;;12.60;99.90;;;;;;4989587;28;20113;-54
2022/09/01 04:15:48;;;;;;;9.38;3.00;;;12.70;99.90;;;;;;4987554;28;20113;-54
2022/09/01 04:18:22;;;;;;;5.43;3.05;;;12.70;99.90;;;;;;4989430;28;20098;-55
2022/09/01 04:20:53;;;;;;;5.93;2.67;;;12.60;99.90;;;;;;4987552;28;20018;-53
2022/09/01 04:23:32;;;;;;;7.47;3.33;;;12.60;99.90;;;;;;4989466;28;20033;-54
2022/09/01 04:26:07;;;;;;;10.57;3.17;;;12.60;99.90;;;;;;4989467;28;20474;-54
2022/09/01 04:28:37;;;;;;;6.70;2.88;;;12.60;99.90;;;;;;4988125;28;20034;-53
2022/09/01 04:31:13;;;;;;;10.80;3.33;;;12.60;99.90;;;;;;4986319;28;20038;-53
2022/09/01 04:33:39;;;;;;;8.13;3.35;;;12.60;99.90;;;;;;4989378;28;20088;-53
2022/09/01 04:36:12;;;;;;;8.43;3.10;;;12.60;99.90;;;;;;4989228;28;20041;-54
2022/09/01 04:38:39;;;;;;;5.38;2.80;;;12.60;99.90;;;;;;4989459;28;20041;-53
2022/09/01 04:41:05;;;;;;;5.57;2.75;;;12.60;99.90;;;;;;4979915;28;20030;-54
2022/09/01 04:43:32;;;;;;;7.70;2.97;;;12.60;99.90;;;;;;4989368;28;20049;-54
2022/09/01 04:45:58;;;;;;;4.82;2.85;;;12.60;99.90;;;;;;4989365;28;20037;-53
2022/09/01 04:48:25;;;;;;;7.07;3.10;;;12.70;99.90;;;;;;4986566;28;20054;-53
2022/09/01 04:50:51;;;;;;;6.22;2.92;;;12.70;99.90;;;;;;4989264;28;20042;-54
2022/09/01 04:53:18;;;;;;;9.50;3.80;;;12.70;99.90;;;;;;4989061;28;20037;-54
2022/09/01 04:55:45;;;;;;;9.07;3.15;;;12.70;99.90;;;;;;4986173;28;20117;-54
2022/09/01 04:58:16;;;;;;;9.27;3.72;;;12.70;99.90;;;;;;4989073;28;20093;-54
2022/09/01 05:00:46;;;;;;;9.55;3.50;;;12.80;99.90;;;;;;4989193;28;20053;-54
2022/09/01 05:03:12;;;;;;;8.73;3.40;;;12.90;99.90;;;;;;4989100;28;20035;-54
2022/09/01 05:05:41;;;;;;;9.80;3.05;;;12.80;99.90;;;;;;4988943;28;20022;-54
2022/09/01 05:08:21;;;;;;;15.07;3.60;;;12.90;99.90;;;;;;4986434;28;20038;-54
2022/09/01 05:10:51;;;;;;;9.00;2.72;;;12.90;99.90;;;;;;4986678;28;20045;-55
2022/09/01 05:13:21;;;;;;;9.18;3.40;;;12.90;99.90;;;;;;4971682;28;20113;-54
2022/09/01 05:15:47;;;;;;;5.05;2.67;;;13.00;99.90;;;;;;4986732;28;20018;-54
2022/09/01 05:18:26;;;;;;;7.07;3.10;;;13.00;99.90;;;;;;4989203;28;20029;-54
2022/09/01 05:20:54;;;;;;;7.20;2.90;;;13.00;99.90;;;;;;4987409;28;20029;-54
2022/09/01 05:23:20;;;;;;;;;;;13.00;99.90;;;;;;4989474;28;20073;-54
2022/09/01 05:25:48;;;;;;;5.97;3.03;;;13.00;99.90;;;;;;4988991;28;19906;-61
2022/09/01 05:28:17;;;;;;;8.98;3.65;;;13.00;99.90;;;;;;4988953;28;20833;-53
2022/09/01 05:30:44;;;;;;;6.90;3.22;;;13.10;99.90;;;;;;4988942;28;20039;-53
2022/09/01 05:33:11;;;;;;;;;;;13.10;99.90;;;;;;4989189;28;20053;-54
2022/09/01 05:35:44;;;;;;;8.93;3.28;;;13.20;99.90;;;;;;4987557;28;20277;-53
2022/09/01 05:38:12;;;;;;;6.55;3.10;;;13.30;99.90;;;;;;4984951;28;20481;-54
2022/09/01 05:40:42;;;;;;;10.02;3.75;;;13.30;99.90;;;;;;4988779;28;20023;-54
2022/09/01 05:43:11;;;;;;;9.13;3.75;;;13.40;99.90;;;;;;4992587;28;20014;-53
2022/09/01 05:45:42;;;;;;;7.90;3.33;;;13.50;99.90;;;;;;4992492;28;20029;-54
2022/09/01 05:48:12;;;;;;;10.88;3.58;;;13.50;99.90;;;;;;4992285;28;20101;-53
2022/09/01 05:50:41;;;;;;;5.72;2.58;;;13.60;99.90;;;;;;4992339;28;20426;-53
2022/09/01 05:53:09;;;;;;;5.38;2.95;;;13.70;99.90;;;;;;4993047;28;20117;-53
2022/09/01 05:55:37;;;;;;;8.85;3.28;;;13.70;99.90;;;;;;4993403;28;20033;-53
2022/09/01 05:58:03;;;;;;;18.10;3.67;;;13.90;99.90;;;;;;4993212;28;20033;-53
2022/09/01 06:00:33;;;;;;;10.15;2.78;;;13.90;99.90;;;;;;4975268;28;20173;-53
2022/09/01 06:03:01;;;;;;;9.13;3.55;;;14.10;99.90;;;;;;4993369;28;20040;-54
2022/09/01 06:05:27;;;;;;;8.80;2.88;;;14.20;99.90;;;;;;4993341;28;20377;-53
2022/09/01 06:07:56;;;;;;;5.82;2.53;;;14.30;99.90;;;;;;4992238;28;20038;-53
2022/09/01 06:10:22;;;;;;;7.20;3.30;;;14.30;99.90;;;;;;4991668;28;20050;-53
2022/09/01 06:12:49;;;;;;;7.82;3.03;;;14.50;99.90;;;;;;4991811;28;20117;-54
2022/09/01 06:15:17;;;;;;;10.85;3.42;;;14.60;99.90;;;;;;4992821;28;20038;-53
2022/09/01 06:17:43;;;;;;;9.85;2.95;;;14.60;99.90;;;;;;4993000;28;20022;-53
2022/09/01 06:20:09;;;;;;;6.78;2.38;;;14.70;99.90;;;;;;4992960;28;20034;-54
2022/09/01 06:22:35;;;;;;;6.68;2.58;;;14.80;99.90;;;;;;4992348;28;20458;-53
2022/09/01 06:25:05;;;;;;;10.07;3.05;;;14.90;99.90;;;;;;4992523;28;20038;-53
2022/09/01 06:27:32;;;;;;;7.25;2.55;;;14.90;99.90;;;;;;4992188;28;20406;-53
2022/09/01 06:29:58;;;;;;;9.55;2.95;;;15.00;99.90;;;;;;4991520;28;20038;-53
2022/09/01 06:32:24;;;;;;;8.98;2.55;;;15.10;99.90;;;;;;4991235;28;20038;-54
2022/09/01 06:34:50;;;;;;;7.93;2.38;;;15.20;99.90;;;;;;4991048;28;20030;-54
2022/09/01 06:37:21;;;;;;;10.50;2.67;;;15.20;99.90;;;;;;4991700;28;20030;-53
2022/09/01 06:39:47;;;;;;;8.70;2.63;;;15.20;99.90;;;;;;4991916;28;20033;-54
2022/09/01 06:42:14;;;;;;;9.93;2.70;;;15.30;99.90;;;;;;4991990;28;20034;-54
2022/09/01 06:44:40;;;;;;;9.45;2.90;;;15.30;99.90;;;;;;4990697;28;20537;-55
2022/09/01 06:47:07;;;;;;;11.95;2.72;;;15.40;99.90;;;;;;4990194;28;20030;-55
2022/09/01 06:49:33;;;;;;;5.78;2.20;;;15.50;99.90;;;;;;4986588;28;20035;-55
2022/09/01 06:52:01;;;;;;;8.40;2.67;;;15.60;99.90;;;;;;4989362;28;20026;-54
2022/09/01 06:54:33;;;;;;;8.15;2.65;;;15.70;99.90;;;;;;4988581;28;20018;-53
2022/09/01 06:57:02;;;;;;;6.28;2.15;;;15.80;99.90;;;;;;4987583;28;20069;-54
2022/09/01 06:59:30;;;;;;;6.50;2.00;;;15.90;99.90;;;;;;4988614;28;20058;-54
2022/09/01 07:02:00;;;;;;;9.27;2.92;;;16.00;99.90;;;;;;4989712;28;20453;-54
2022/09/01 07:04:28;;;;;;;7.50;2.45;;;16.00;99.90;;;;;;4989311;28;20102;-54
2022/09/01 07:06:56;;;;;;;7.75;2.63;;;16.10;99.90;;;;;;4989427;28;20049;-54
2022/09/01 07:09:22;;;;;;;9.45;2.53;;;16.30;99.90;;;;;;4989424;28;20046;-54
2022/09/01 07:11:48;;;;;;;6.07;2.83;;;16.50;99.90;;;;;;4987645;28;20509;-54
2022/09/01 07:14:18;;;;;;;6.68;2.15;;;16.60;99.90;;;;;;4990734;28;20501;-54
2022/09/01 07:16:45;;;;;;;6.90;2.53;;;16.70;99.90;;;;;;4988760;28;20399;-53
2022/09/01 07:19:14;;;;;;;10.68;2.50;;;16.80;99.90;;;;;;4989123;28;20283;-54
2022/09/01 07:21:42;;;;;;;7.80;2.58;;;16.80;99.90;;;;;;4988677;28;20034;-54
2022/09/01 07:24:09;;;;;;;8.30;2.95;;;16.80;99.90;;;;;;4986418;28;20461;-53
2022/09/01 07:26:35;;;;;;;10.65;2.90;;;16.90;99.90;;;;;;4987638;28;20037;-54
2022/09/01 07:29:03;;;;;;;12.65;4.05;;;16.90;99.90;;;;;;4988561;28;20046;-53
2022/09/01 07:31:33;;;;;;;9.65;3.40;;;17.00;99.90;;;;;;4986695;28;20041;-54
2022/09/01 07:34:04;;;;;;;10.38;3.63;;;17.10;99.90;;;;;;4988569;28;20023;-54
2022/09/01 07:36:31;;;;;;;12.30;3.17;;;17.30;99.90;;;;;;4987316;28;20034;-53
2022/09/01 07:38:56;;;;;;;12.15;4.35;;;17.30;99.90;;;;;;4990989;28;20030;-54
2022/09/01 07:41:25;;;;;;;10.60;3.17;;;17.50;99.90;;;;;;4990835;28;20022;-54
2022/09/01 07:43:52;;;;;;;13.00;3.35;;;17.60;99.90;;;;;;4990900;28;20660;-54
2022/09/01 07:46:30;;;;;;;8.48;2.92;;;17.60;99.90;;;;;;4988053;28;20026;-54
2022/09/01 07:48:56;;;;;;;12.95;3.55;;;17.70;99.90;;;;;;4988524;28;20506;-54
2022/09/01 07:51:26;;;;;;;10.35;3.05;;;17.80;99.90;;;;;;4971522;28;20038;-54
2022/09/01 07:53:52;;;;;;;10.95;3.47;;;17.80;99.90;;;;;;4987948;28;20022;-54
2022/09/01 07:56:20;;;;;;;10.40;3.40;;;17.80;99.90;;;;;;4989022;28;20041;-53
2022/09/01 07:58:47;;;;;;;12.00;3.03;;;17.90;99.90;;;;;;4989072;28;20018;-54
2022/09/01 08:01:19;;;;;;;13.00;3.13;;;18.00;99.90;;;;;;4990212;28;20073;-54
2022/09/01 08:03:47;;;;;;;6.45;2.28;;;18.00;99.90;;;;;;4989333;28;20041;-54
2022/09/01 08:06:19;;;;;;;8.50;2.10;;;18.20;99.90;;;;;;4988246;28;20033;-54
2022/09/01 08:08:47;;;;;;;5.70;1.92;;;18.20;99.90;;;;;;4988520;28;20076;-53
2022/09/01 08:11:18;;;;;;;75.40;49.05;;;18.30;99.90;;;;;;4990587;28;20521;-54
2022/09/01 08:13:46;;;;;;;7.68;3.42;;;18.40;99.90;;;;;;4991146;28;20046;-54
2022/09/01 08:16:13;;;;;;;7.10;1.25;;;18.50;99.90;;;;;;4991020;28;20043;-54
2022/09/01 08:18:39;;;;;;;7.47;1.38;;;18.50;99.90;;;;;;4991175;28;20167;-54
2022/09/01 08:21:10;;;;;;;8.43;1.27;;;18.60;99.90;;;;;;4990880;28;20045;-53
2022/09/01 08:23:37;;;;;;;7.13;1.52;;;18.70;99.90;;;;;;4990304;28;20034;-54
2022/09/01 08:26:08;;;;;;;4.43;1.20;;;18.80;99.90;;;;;;4990491;28;20030;-53
2022/09/01 08:28:34;;;;;;;4.70;1.48;;;18.80;99.90;;;;;;4990432;28;20073;-53
2022/09/01 08:31:04;;;;;;;8.88;1.65;;;19.00;99.90;;;;;;4990448;28;20038;-54
2022/09/01 08:33:33;;;;;;;8.10;1.25;;;19.00;99.90;;;;;;4990402;28;20104;-53
2022/09/01 08:35:59;;;;;;;4.53;1.10;;;19.10;99.90;;;;;;4990366;28;20050;-57
2022/09/01 08:38:24;;;;;;;3.15;1.00;;;19.30;99.90;;;;;;4990332;28;20061;-54
2022/09/01 08:40:54;;;;;;;4.28;1.13;;;19.40;99.90;;;;;;4990003;28;20041;-54
2022/09/01 08:43:42;;;;;;;4.45;0.73;;;19.50;99.90;;;;;;4988985;28;20489;-54
2022/09/01 08:46:13;;;;;;;;;;;19.60;99.90;;;;;;4990593;28;20117;-54
2022/09/01 08:48:49;;;;;;;4.00;0.85;;;19.60;99.90;;;;;;5007497;28;20373;-54
2022/09/01 08:51:40;;;;;;;3.75;0.80;;;19.60;99.90;;;;;;5009637;28;20050;-54
2022/09/01 08:54:15;;;;;;;18.80;10.85;;;19.90;99.90;;;;;;5002437;28;20089;-55
2022/09/01 08:56:42;;;;;;;91.47;7.45;;;20.10;99.90;;;;;;4987672;28;20113;-54
2022/09/01 08:59:10;;;;;;;2.90;0.95;;;20.30;99.90;;;;;;4990389;28;20030;-54
2022/09/01 09:01:51;;;;;;;1.52;0.85;;;20.30;99.90;;;;;;4989776;28;20026;-54
2022/09/01 09:04:28;;;;;;;2.50;0.70;;;20.50;96.90;;;;;;4985734;28;20034;-54
2022/09/01 09:07:18;;;;;;;6.82;1.13;;;19.90;99.80;;;;;;4989248;28;20038;-54
2022/09/01 09:09:52;;;;;;;1.58;0.75;;;19.70;98.30;;;;;;4987147;28;20035;-54
2022/09/01 09:12:50;;;;;;;2.13;0.80;;;19.60;99.10;;;;;;4986598;28;20050;-54
2022/09/01 09:15:29;;;;;;;2.30;0.80;;;19.60;99.90;;;;;;4986379;28;20447;-53
2022/09/01 09:18:05;;;;;;;2.10;0.90;;;19.60;98.70;;;;;;4993226;28;20065;-54
2022/09/01 09:20:31;;;;;;;3.47;0.80;;;20.10;99.90;;;;;;4993034;28;20027;-55
2022/09/01 09:22:56;;;;;;;3.28;0.70;;;20.30;99.60;;;;;;4993450;28;20036;-55
2022/09/01 09:25:23;;;;;;;5.57;0.82;;;20.50;97.60;;;;;;4992623;28;20033;-55
2022/09/01 09:27:50;;;;;;;9.38;1.20;;;20.80;99.60;;;;;;4992607;28;20096;-55
2022/09/01 09:30:30;;;;;;;3.65;0.88;;;20.90;97.40;;;;;;4991332;28;20031;-54
2022/09/01 09:33:04;;;;;;;3.05;0.60;;;20.70;94.80;;;;;;4992571;28;20398;-53
2022/09/01 09:35:35;;;;;;;3.17;0.82;;;20.40;94.70;;;;;;4991335;28;20034;-53
2022/09/01 09:38:27;;;;;;;2.25;0.70;;;20.70;96.60;;;;;;4989397;28;20061;-53
2022/09/01 09:41:02;;;;;;;3.55;0.80;;;21.20;95.60;;;;;;4987613;28;20034;-55
2022/09/01 09:43:32;;;;;;;2.58;0.80;;;21.20;95.90;;;;;;4990428;28;20030;-54
2022/09/01 09:46:25;;;;;;;3.33;0.90;;;21.60;97.50;;;;;;4984916;28;20073;-54
2022/09/01 09:49:19;;;;;;;4.05;0.70;;;21.90;97.70;;;;;;4992910;28;20085;-54
2022/09/01 09:51:48;;;;;;;3.63;0.90;;;22.80;95.20;;;;;;4982441;28;20054;-54
2022/09/01 09:54:31;;;;;;;1.40;0.73;;;22.70;93.20;;;;;;4989565;28;20133;-55
2022/09/01 09:57:08;;;;;;;1.63;0.65;;;22.80;91.10;;;;;;4992118;28;20030;-55
2022/09/01 09:59:55;;;;;;;2.25;0.80;;;23.10;92.50;;;;;;4990987;28;20101;-55
2022/09/01 10:02:35;;;;;;;1.88;0.73;;;23.20;91.20;;;;;;4991413;28;20378;-54
2022/09/01 10:05:38;;;;;;;1.98;0.65;;;23.90;85.30;;;;;;4992475;28;20167;-53
2022/09/01 10:08:08;;;;;;;3.38;0.52;;;24.30;80.50;;;;;;4980992;28;20478;-53
2022/09/01 10:10:40;;;;;;;1.75;0.70;;;24.40;85.30;;;;;;4992172;28;20042;-54
2022/09/01 10:13:18;;;;;;;8.00;2.15;;;24.50;78.70;;;;;;4992988;28;20026;-54
2022/09/01 10:15:51;;;;;;;12.95;10.98;;;25.20;77.20;;;;;;4993130;28;20038;-55
2022/09/01 10:18:24;;;;;;;3.13;0.65;;;24.00;72.90;;;;;;4992959;28;20023;-60
2022/09/01 10:20:58;;;;;;;1.55;0.80;;;24.00;71.30;;;;;;4990313;28;20026;-55
2022/09/01 10:23:26;;;;;;;2.17;0.80;;;23.10;78.00;;;;;;4974768;28;20028;-54
2022/09/01 10:26:01;;;;;;;1.85;0.50;;;22.80;76.40;;;;;;4992370;28;20054;-54
2022/09/01 10:28:30;;;;;;;6.45;0.80;;;22.80;79.00;;;;;;4988771;28;20170;-56
2022/09/01 10:30:58;;;;;;;1.45;0.50;;;23.20;77.50;;;;;;4989606;28;20034;-56
2022/09/01 10:33:27;;;;;;;2.50;0.63;;;24.10;77.20;;;;;;4991028;28;20214;-57
2022/09/01 10:35:55;;;;;;;1.40;0.73;;;23.60;74.20;;;;;;4991009;28;20561;-53
2022/09/01 10:38:26;;;;;;;8.75;0.70;;;23.40;72.90;;;;;;4991408;28;20543;-54
2022/09/01 10:41:06;;;;;;;2.08;0.50;;;23.30;71.70;;;;;;4992544;28;20073;-54
2022/09/01 10:43:44;;;;;;;3.53;0.60;;;23.00;70.50;;;;;;4991762;28;20041;-54
2022/09/01 10:46:19;;;;;;;1.55;0.40;;;23.60;74.50;;;;;;4992521;28;20069;-54
2022/09/01 10:48:55;;;;;;;2.58;0.80;;;24.10;70.80;;;;;;4992008;28;20064;-55
2022/09/01 10:51:21;;;;;;;6.85;0.40;;;24.50;72.50;;;;;;4992400;28;20084;-54
2022/09/01 10:53:54;;;;;;;2.35;0.43;;;24.70;68.70;;;;;;4991684;28;20610;-54
2022/09/01 10:56:38;;;;;;;3.67;0.70;;;23.70;67.00;;;;;;4992130;28;20030;-55
2022/09/01 10:59:21;;;;;;;2.58;0.50;;;23.20;70.00;;;;;;4992262;28;20030;-54
2022/09/01 11:01:47;;;;;;;2.22;0.50;;;23.40;69.50;;;;;;4991904;28;20027;-55
2022/09/01 11:04:31;;;;;;;4.30;0.60;;;23.20;71.20;;;;;;4989986;28;20430;-55
2022/09/01 11:07:05;;;;;;;1.10;0.50;;;22.50;69.10;;;;;;4990155;28;20038;-54
2022/09/01 11:09:34;;;;;;;1.98;0.77;;;22.20;72.90;;;;;;4989903;28;20030;-55
2022/09/01 11:11:59;;;;;;;2.78;0.80;;;22.30;74.30;;;;;;4989866;28;20042;-55
2022/09/01 11:14:25;;;;;;;2.08;0.80;;;22.20;72.10;;;;;;4990006;28;20019;-55
2022/09/01 11:17:13;;;;;;;3.13;0.50;;;22.10;73.70;;;;;;4989886;28;20042;-55
2022/09/01 11:20:05;;;;;;;1.65;0.63;;;22.00;72.30;;;;;;4991670;28;20031;-54
2022/09/01 11:22:39;;;;;;;3.17;0.55;;;21.70;74.00;;;;;;4991586;28;20029;-54
2022/09/01 11:25:13;;;;;;;3.35;0.52;;;21.70;77.90;;;;;;4991332;28;20037;-54
2022/09/01 11:27:48;;;;;;;4.20;0.77;;;21.60;72.50;;;;;;4991137;28;20382;-54
2022/09/01 11:30:51;;;;;;;3.75;0.55;;;21.50;76.10;;;;;;4991516;28;20040;-54
2022/09/01 11:33:41;;;;;;;1.85;0.70;;;22.10;78.10;;;;;;4966614;28;20039;-54
2022/09/01 11:36:20;;;;;;;2.17;1.00;;;22.20;72.20;;;;;;4990893;28;20026;-54
2022/09/01 11:38:46;;;;;;;7.22;1.80;;;21.90;73.50;;;;;;4990958;28;20023;-54
2022/09/01 11:41:31;;;;;;;4.05;1.48;;;21.60;75.40;;;;;;4990802;28;20092;-56
2022/09/01 11:43:58;;;;;;;4.03;1.60;;;21.40;75.30;;;;;;4990085;28;20026;-54
2022/09/01 11:46:33;;;;;;;5.47;1.00;;;21.20;75.00;;;;;;4989419;28;20030;-53
2022/09/01 11:49:06;;;;;;;2.83;1.05;;;21.10;74.70;;;;;;4990577;28;20050;-53
2022/09/01 11:51:45;;;;;;;3.60;1.13;;;20.90;78.50;;;;;;4990169;28;20034;-55
2022/09/01 11:54:13;;;;;;;1.65;0.73;;;20.80;79.00;;;;;;4990287;28;20486;-54
2022/09/01 11:56:38;;;;;;;;;;;20.80;80.10;;;;;;4990004;28;20401;-53
2022/09/01 11:59:04;;;;;;;2.22;0.80;;;21.40;82.90;;;;;;4988460;28;19914;-53
2022/09/01 12:01:34;;;;;;;1.65;0.63;;;21.60;74.60;;;;;;4988548;28;20026;-53
2022/09/01 12:04:35;;;;;;;3.47;0.60;;;22.20;76.90;;;;;;4988285;28;20460;-53
2022/09/01 12:07:05;;;;;;;2.10;0.52;;;23.10;74.70;;;;;;4915529;28;20397;-53
2022/09/01 12:09:50;;;;;;;1.48;0.52;;;23.10;68.60;;;;;;4989933;28;20104;-53
2022/09/01 12:12:36;;;;;;;3.30;1.13;;;22.70;67.60;;;;;;4970677;28;20053;-54
2022/09/01 12:15:17;;;;;;;7.80;2.10;;;22.50;69.40;;;;;;4988381;28;20034;-54
2022/09/01 12:17:43;;;;;;;4.93;1.30;;;22.60;69.00;;;;;;4988887;28;20029;-55
2022/09/01 12:20:24;;;;;;;1.58;0.80;;;22.40;69.70;;;;;;4989499;28;20026;-55
2022/09/01 12:22:50;;;;;;;3.40;0.85;;;22.30;68.40;;;;;;4988722;28;20119;-54
2022/09/01 12:25:25;;;;;;;1.10;0.60;;;22.10;70.00;;;;;;4989493;28;20026;-54
2022/09/01 12:27:52;;;;;;;2.92;0.82;;;22.20;71.50;;;;;;4986457;28;20480;-54
2022/09/01 12:30:19;;;;;;;1.43;0.30;;;22.60;75.60;;;;;;4990124;28;20038;-55
2022/09/01 12:32:45;;;;;;;2.22;0.75;;;23.20;76.80;;;;;;4990069;28;20269;-55
2022/09/01 12:35:19;;;;;;;13.37;0.77;;;23.70;72.90;;;;;;4989648;28;20056;-54
2022/09/01 12:37:45;;;;;;;1.88;0.73;;;24.20;69.00;;;;;;4989851;28;20030;-55
2022/09/01 12:40:34;;;;;;;4.55;1.13;;;24.00;65.00;;;;;;4988079;28;20030;-54
2022/09/01 12:43:00;;;;;;;7.22;1.00;;;23.60;65.60;;;;;;4986482;28;20026;-56
2022/09/01 12:45:41;;;;;;;1.65;0.60;;;23.30;66.30;;;;;;4988653;28;20373;-55
2022/09/01 12:48:23;;;;;;;1.42;0.70;;;23.10;67.10;;;;;;4987297;28;20054;-55
2022/09/01 12:50:49;;;;;;;3.03;0.57;;;22.80;66.80;;;;;;4987587;28;20104;-55
2022/09/01 12:53:19;;;;;;;3.13;0.80;;;22.50;68.70;;;;;;4989095;28;20069;-56
2022/09/01 12:55:58;;;;;;;3.00;0.77;;;22.30;67.00;;;;;;4988931;28;20034;-56
2022/09/01 12:58:26;;;;;;;3.05;0.98;;;22.10;69.80;;;;;;4988366;28;20740;-55
2022/09/01 13:00:58;;;;;;;3.95;1.00;;;21.70;70.40;;;;;;4986206;28;20540;-55
2022/09/01 13:03:26;;;;;;;2.40;0.90;;;21.50;71.20;;;;;;4970802;28;20888;-56
2022/09/01 13:05:58;;;;;;;2.65;0.93;;;21.60;71.60;;;;;;4970052;28;20047;-55
2022/09/01 13:08:32;;;;;;;5.68;0.90;;;21.20;71.20;;;;;;4970503;28;20023;-55